DAL382 KLAX-KDCA
Flight info
| Callsign | DAL382 |
|---|---|
| Flight time | N/A |
| Altitude | 33000 |
| Route | ORCKA5 LAS J146 DVC PUB HLC RBA SPI VHP J80 BOWRR OTMAN J30 BUCKO FRDMM6 |
| Aircraft | B739/M-SDE2E3FGHIRWXY/LB1 |
Departure
| Time | N/A |
|---|---|
| Airport | Los Angeles International Airport (KLAX) |
Arrival
| Time | 2026-05-04 22:19 |
|---|---|
| Airport | Ronald Reagan Washington National Airport (KDCA) |
| Time | Latitude | Longitude | Altitude | Speed | Heading |
|---|---|---|---|---|---|
| 2026-05-04 21:54 | 39.28877 | -79.78425 | 30472 ft | 500 kts | 94° |
| 2026-05-04 21:54 | 39.28600 | -79.73947 | 30066 ft | 502 kts | 94° |
| 2026-05-04 21:54 | 39.28323 | -79.69451 | 29577 ft | 504 kts | 95° |
| 2026-05-04 21:55 | 39.28006 | -79.64942 | 29114 ft | 504 kts | 95° |
| 2026-05-04 21:55 | 39.27653 | -79.60442 | 28678 ft | 504 kts | 96° |
| 2026-05-04 21:55 | 39.27284 | -79.55942 | 28238 ft | 504 kts | 96° |
| 2026-05-04 21:55 | 39.26916 | -79.51497 | 27820 ft | 503 kts | 96° |
| 2026-05-04 21:56 | 39.26549 | -79.47006 | 27371 ft | 503 kts | 96° |
| 2026-05-04 21:56 | 39.26185 | -79.42525 | 26946 ft | 502 kts | 96° |
| 2026-05-04 21:56 | 39.25820 | -79.38038 | 26512 ft | 502 kts | 96° |
| 2026-05-04 21:56 | 39.25454 | -79.33566 | 26083 ft | 502 kts | 96° |
| 2026-05-04 21:57 | 39.25085 | -79.29090 | 25655 ft | 502 kts | 96° |
| 2026-05-04 21:57 | 39.24719 | -79.24670 | 25201 ft | 487 kts | 96° |
| 2026-05-04 21:57 | 39.24361 | -79.20401 | 24783 ft | 470 kts | 96° |
| 2026-05-04 21:57 | 39.24012 | -79.16286 | 24383 ft | 453 kts | 96° |
| 2026-05-04 21:58 | 39.23669 | -79.12272 | 24027 ft | 446 kts | 96° |
| 2026-05-04 21:58 | 39.23331 | -79.08326 | 23641 ft | 439 kts | 96° |
| 2026-05-04 21:58 | 39.22998 | -79.04450 | 23256 ft | 433 kts | 96° |
| 2026-05-04 21:58 | 39.22668 | -79.00611 | 22844 ft | 428 kts | 96° |
| 2026-05-04 21:59 | 39.22345 | -78.96862 | 22446 ft | 424 kts | 96° |
| 2026-05-04 21:59 | 39.22118 | -78.94318 | 22197 ft | 421 kts | 97° |
| 2026-05-04 21:59 | 39.21646 | -78.89395 | 21731 ft | 415 kts | 97° |
| 2026-05-04 21:59 | 39.21402 | -78.86914 | 21490 ft | 413 kts | 97° |
| 2026-05-04 22:00 | 39.20925 | -78.82066 | 21015 ft | 410 kts | 97° |
| 2026-05-04 22:00 | 39.20685 | -78.79608 | 20789 ft | 409 kts | 97° |
| 2026-05-04 22:00 | 39.20213 | -78.74768 | 20322 ft | 411 kts | 97° |
| 2026-05-04 22:00 | 39.19977 | -78.72345 | 20090 ft | 411 kts | 97° |
| 2026-05-04 22:01 | 39.19620 | -78.68708 | 19744 ft | 409 kts | 97° |
| 2026-05-04 22:01 | 39.19260 | -78.65058 | 19390 ft | 408 kts | 97° |
| 2026-05-04 22:01 | 39.18903 | -78.61440 | 19027 ft | 406 kts | 97° |
| 2026-05-04 22:01 | 39.18548 | -78.57851 | 18689 ft | 401 kts | 97° |
| 2026-05-04 22:02 | 39.18196 | -78.54309 | 18338 ft | 396 kts | 97° |
| 2026-05-04 22:02 | 39.17848 | -78.50812 | 17974 ft | 392 kts | 97° |
| 2026-05-04 22:02 | 39.17502 | -78.47343 | 17611 ft | 388 kts | 97° |
| 2026-05-04 22:02 | 39.17159 | -78.43913 | 17261 ft | 384 kts | 97° |
| 2026-05-04 22:03 | 39.16818 | -78.40519 | 16931 ft | 380 kts | 97° |
| 2026-05-04 22:03 | 39.16477 | -78.37157 | 16597 ft | 377 kts | 98° |
| 2026-05-04 22:03 | 39.15928 | -78.33878 | 16293 ft | 373 kts | 108° |
| 2026-05-04 22:03 | 39.15130 | -78.30707 | 16061 ft | 372 kts | 110° |
| 2026-05-04 22:04 | 39.14284 | -78.27582 | 15747 ft | 375 kts | 110° |
| 2026-05-04 22:04 | 39.13433 | -78.24395 | 15431 ft | 377 kts | 110° |
| 2026-05-04 22:04 | 39.12605 | -78.21197 | 15107 ft | 377 kts | 109° |
| 2026-05-04 22:04 | 39.11796 | -78.17986 | 14785 ft | 376 kts | 109° |
| 2026-05-04 22:05 | 39.10995 | -78.14774 | 14457 ft | 376 kts | 109° |
| 2026-05-04 22:05 | 39.10198 | -78.11575 | 14145 ft | 375 kts | 109° |
| 2026-05-04 22:05 | 39.09395 | -78.08391 | 13815 ft | 372 kts | 109° |
| 2026-05-04 22:05 | 39.08589 | -78.05238 | 13476 ft | 369 kts | 109° |
| 2026-05-04 22:06 | 39.07790 | -78.02117 | 13128 ft | 364 kts | 109° |
| 2026-05-04 22:06 | 39.07000 | -77.99033 | 12804 ft | 360 kts | 109° |
| 2026-05-04 22:06 | 39.06221 | -77.95991 | 12496 ft | 356 kts | 109° |
| 2026-05-04 22:06 | 39.05449 | -77.92977 | 12198 ft | 353 kts | 110° |
| 2026-05-04 22:07 | 39.04684 | -77.89997 | 11888 ft | 348 kts | 110° |
| 2026-05-04 22:07 | 39.03930 | -77.87061 | 11584 ft | 344 kts | 110° |
| 2026-05-04 22:07 | 39.03183 | -77.84159 | 11301 ft | 339 kts | 110° |
| 2026-05-04 22:07 | 39.02446 | -77.81296 | 11012 ft | 335 kts | 110° |
| 2026-05-04 22:08 | 39.01717 | -77.78469 | 10745 ft | 330 kts | 110° |
| 2026-05-04 22:08 | 39.01007 | -77.75721 | 10467 ft | 327 kts | 110° |
| 2026-05-04 22:08 | 39.00294 | -77.72958 | 10190 ft | 323 kts | 110° |
| 2026-05-04 22:08 | 38.99590 | -77.70237 | 9939 ft | 318 kts | 110° |
| 2026-05-04 22:09 | 38.98913 | -77.67619 | 9921 ft | 300 kts | 110° |
| 2026-05-04 22:09 | 38.98251 | -77.65076 | 9415 ft | 299 kts | 112° |
| 2026-05-04 22:09 | 38.97538 | -77.62608 | 9124 ft | 294 kts | 114° |
| 2026-05-04 22:09 | 38.96804 | -77.60166 | 8849 ft | 291 kts | 114° |
| 2026-05-04 22:10 | 38.96080 | -77.57746 | 8585 ft | 288 kts | 114° |
| 2026-05-04 22:10 | 38.95368 | -77.55349 | 8331 ft | 286 kts | 114° |
| 2026-05-04 22:10 | 38.94702 | -77.52954 | 8070 ft | 284 kts | 105° |
| 2026-05-04 22:10 | 38.94731 | -77.50442 | 7776 ft | 286 kts | 75° |
| 2026-05-04 22:11 | 38.95426 | -77.48054 | 7500 ft | 285 kts | 67° |
| 2026-05-04 22:11 | 38.96229 | -77.45718 | 7178 ft | 286 kts | 67° |
| 2026-05-04 22:11 | 38.97042 | -77.43381 | 6852 ft | 286 kts | 67° |
| 2026-05-04 22:11 | 38.97849 | -77.41040 | 6541 ft | 287 kts | 67° |
| 2026-05-04 22:12 | 38.98647 | -77.38680 | 6202 ft | 288 kts | 68° |
| 2026-05-04 22:12 | 38.99437 | -77.36319 | 5869 ft | 287 kts | 68° |
| 2026-05-04 22:12 | 39.00217 | -77.33980 | 5520 ft | 281 kts | 69° |
| 2026-05-04 22:12 | 39.00970 | -77.31728 | 5195 ft | 275 kts | 68° |
| 2026-05-04 22:13 | 39.01719 | -77.29501 | 4899 ft | 268 kts | 69° |
| 2026-05-04 22:13 | 39.02449 | -77.27328 | 4582 ft | 262 kts | 68° |
| 2026-05-04 22:13 | 39.02897 | -77.25126 | 4291 ft | 250 kts | 96° |
| 2026-05-04 22:13 | 39.02458 | -77.23085 | 4109 ft | 229 kts | 123° |
| 2026-05-04 22:14 | 39.01560 | -77.21487 | 3833 ft | 213 kts | 141° |
| 2026-05-04 22:14 | 39.00499 | -77.20216 | 3596 ft | 205 kts | 142° |
| 2026-05-04 22:14 | 38.99484 | -77.19002 | 3353 ft | 198 kts | 142° |
| 2026-05-04 22:14 | 38.98491 | -77.17829 | 3148 ft | 188 kts | 145° |
| 2026-05-04 22:15 | 38.97481 | -77.16800 | 3006 ft | 186 kts | 147° |
| 2026-05-04 22:15 | 38.96436 | -77.15776 | 2741 ft | 189 kts | 147° |
| 2026-05-04 22:15 | 38.95442 | -77.14691 | 2473 ft | 188 kts | 139° |
| 2026-05-04 22:15 | 38.94576 | -77.13512 | 2221 ft | 186 kts | 139° |
| 2026-05-04 22:16 | 38.93722 | -77.12335 | 1976 ft | 176 kts | 136° |
| 2026-05-04 22:16 | 38.92821 | -77.11424 | 1794 ft | 161 kts | 161° |
| 2026-05-04 22:16 | 38.91804 | -77.10844 | 1578 ft | 160 kts | 155° |
| 2026-05-04 22:16 | 38.90942 | -77.09996 | 1360 ft | 156 kts | 130° |
| 2026-05-04 22:17 | 38.90520 | -77.08797 | 1160 ft | 151 kts | 105° |
| 2026-05-04 22:17 | 38.90244 | -77.07540 | 1034 ft | 146 kts | 121° |
| 2026-05-04 22:17 | 38.89578 | -77.06519 | 906 ft | 151 kts | 139° |
| 2026-05-04 22:17 | 38.88866 | -77.05574 | 669 ft | 146 kts | 136° |
| 2026-05-04 22:18 | 38.88191 | -77.04645 | 484 ft | 140 kts | 136° |
| 2026-05-04 22:18 | 38.87417 | -77.03931 | 306 ft | 136 kts | 175° |
| 2026-05-04 22:18 | 38.86459 | -77.03905 | 157 ft | 140 kts | 179° |
| 2026-05-04 22:18 | 38.85515 | -77.03810 | 27 ft | 126 kts | 176° |
| 2026-05-04 22:19 | 38.84806 | -77.03741 | 19 ft | 63 kts | 175° |
| 2026-05-04 22:19 | 38.84529 | -77.03712 | 20 ft | 20 kts | 176° |
| 2026-05-04 22:19 | 38.84452 | -77.03710 | 19 ft | 1 kts | 188° |
| 2026-05-04 22:19 | 38.84399 | -77.03749 | 20 ft | 10 kts | 235° |
| 2026-05-04 22:20 | 38.84394 | -77.03819 | 22 ft | 8 kts | 287° |
| 2026-05-04 22:20 | 38.84419 | -77.03844 | 22 ft | 1 kts | 346° |
| 2026-05-04 22:20 | 38.84422 | -77.03845 | 22 ft | 0 kts | 352° |
| 2026-05-04 22:20 | 38.84428 | -77.03845 | 22 ft | 6 kts | 355° |
| 2026-05-04 22:21 | 38.84499 | -77.03851 | 20 ft | 13 kts | 355° |
| 2026-05-04 22:21 | 38.84586 | -77.03860 | 20 ft | 13 kts | 356° |
| 2026-05-04 22:21 | 38.84672 | -77.03868 | 21 ft | 12 kts | 355° |
| 2026-05-04 22:21 | 38.84729 | -77.03897 | 20 ft | 8 kts | 310° |
| 2026-05-04 22:22 | 38.84776 | -77.03940 | 20 ft | 9 kts | 347° |
| 2026-05-04 22:22 | 38.84841 | -77.03947 | 18 ft | 9 kts | 355° |